createdAt,value
2018-03-28T00:01:32.360Z,89.41
2018-03-28T00:04:01.620Z,89.72
2018-03-28T00:06:30.740Z,89.52
2018-03-28T00:09:01.421Z,89.64
2018-03-28T00:11:29.798Z,89.42
2018-03-28T00:13:59.493Z,89.17
2018-03-28T00:16:32.223Z,89.59
2018-03-28T00:19:00.671Z,89.51
2018-03-28T00:21:29.632Z,89.98
2018-03-28T00:23:58.828Z,90.05
2018-03-28T00:26:28.438Z,90.17
2018-03-28T00:29:00.501Z,90.01
2018-03-28T00:31:28.826Z,89.99
2018-03-28T00:33:58.775Z,90.25
2018-03-28T00:36:28.043Z,90.00
2018-03-28T00:38:57.128Z,90.33
2018-03-28T00:41:26.768Z,90.34
2018-03-28T00:44:00.260Z,90.28
2018-03-28T00:46:30.604Z,90.38
2018-03-28T00:48:59.607Z,90.49
2018-03-28T00:51:37.810Z,90.39
2018-03-28T00:54:06.182Z,90.60
2018-03-28T00:56:34.938Z,90.84
2018-03-28T00:59:03.635Z,90.84
2018-03-28T01:01:32.765Z,90.57
2018-03-28T01:04:01.785Z,90.23
2018-03-28T01:06:31.172Z,90.36
2018-03-28T01:09:00.737Z,90.35
2018-03-28T01:11:29.115Z,90.65
2018-03-28T01:13:58.351Z,90.78
2018-03-28T01:16:27.607Z,90.70
2018-03-28T01:18:55.980Z,90.52
2018-03-28T01:21:25.486Z,90.64
2018-03-28T01:23:55.005Z,90.75
2018-03-28T01:26:23.340Z,91.03
2018-03-28T01:28:53.026Z,91.05
2018-03-28T01:31:24.472Z,90.74
2018-03-28T01:33:53.822Z,90.73
2018-03-28T01:36:22.202Z,90.84
2018-03-28T01:38:51.595Z,91.10
2018-03-28T01:41:21.797Z,91.28
2018-03-28T01:43:51.499Z,91.18
2018-03-28T01:46:20.389Z,91.39
2018-03-28T01:48:49.173Z,91.44
2018-03-28T01:51:19.176Z,91.54
2018-03-28T01:53:49.803Z,91.38
2018-03-28T01:56:18.189Z,91.32
2018-03-28T01:58:46.696Z,91.44
2018-03-28T02:01:15.036Z,91.38
2018-03-28T02:03:43.450Z,91.32
2018-03-28T02:06:13.958Z,91.18
2018-03-28T02:08:42.581Z,91.42
2018-03-28T02:11:12.360Z,91.11
2018-03-28T02:13:41.559Z,91.15
2018-03-28T02:16:10.240Z,90.84
2018-03-28T02:18:40.158Z,90.50
2018-03-28T02:21:10.278Z,90.57
2018-03-28T02:23:39.780Z,90.20
2018-03-28T02:26:08.632Z,90.35
2018-03-28T02:28:37.051Z,90.17
2018-03-28T02:31:08.046Z,90.21
2018-03-28T02:33:36.853Z,90.13
2018-03-28T02:36:06.545Z,89.96
2018-03-28T02:38:34.847Z,90.30
2018-03-28T02:41:03.269Z,90.45
2018-03-28T02:43:31.651Z,90.14
2018-03-28T02:46:00.117Z,89.65
2018-03-28T02:48:28.990Z,89.90
2018-03-28T02:50:57.719Z,90.05
2018-03-28T02:53:26.548Z,89.96
2018-03-28T02:55:55.311Z,89.77
2018-03-28T02:58:23.699Z,89.56
2018-03-28T03:00:52.093Z,88.90
2018-03-28T03:03:21.994Z,88.85
2018-03-28T03:05:50.360Z,88.89
2018-03-28T03:08:18.747Z,89.20
2018-03-28T03:10:48.416Z,89.25
2018-03-28T03:13:16.808Z,89.26
2018-03-28T03:15:46.567Z,89.21
2018-03-28T03:18:16.863Z,89.76
2018-03-28T03:20:47.451Z,89.50
2018-03-28T03:23:17.958Z,89.81
2018-03-28T03:25:47.512Z,89.80
2018-03-28T03:28:16.323Z,89.46
2018-03-28T03:30:45.591Z,88.98
2018-03-28T03:33:16.179Z,88.91
2018-03-28T03:35:44.608Z,89.58
2018-03-28T03:38:13.861Z,89.67
2018-03-28T03:40:42.861Z,89.19
2018-03-28T03:43:11.256Z,89.11
2018-03-28T03:45:39.858Z,88.98
2018-03-28T03:48:08.880Z,89.15
2018-03-28T03:50:38.093Z,89.22
2018-03-28T03:53:07.064Z,89.47
2018-03-28T03:55:36.975Z,89.04
2018-03-28T03:58:06.568Z,88.81
2018-03-28T04:00:35.183Z,88.74
2018-03-28T04:03:03.513Z,88.72
2018-03-28T04:05:32.546Z,88.46
2018-03-28T04:08:04.301Z,88.32
2018-03-28T04:10:32.763Z,89.10
2018-03-28T04:13:01.928Z,89.24
2018-03-28T04:15:30.365Z,89.00
2018-03-28T04:17:58.984Z,89.16
2018-03-28T04:20:28.982Z,89.19
2018-03-28T04:22:57.355Z,89.01
2018-03-28T04:25:27.392Z,89.06
2018-03-28T04:27:56.183Z,89.00
2018-03-28T04:30:25.919Z,88.74
2018-03-28T04:32:54.246Z,88.77
2018-03-28T04:35:22.630Z,88.96
2018-03-28T04:37:51.321Z,88.75
2018-03-28T04:40:21.032Z,88.59
2018-03-28T04:42:50.939Z,88.43
2018-03-28T04:45:19.346Z,89.07
2018-03-28T04:47:48.514Z,89.08
2018-03-28T04:50:18.942Z,88.96
2018-03-28T04:52:48.907Z,88.83
2018-03-28T04:55:17.320Z,88.79
2018-03-28T04:57:49.162Z,89.00
2018-03-28T05:00:18.954Z,88.81
2018-03-28T05:02:48.153Z,88.61
2018-03-28T05:05:16.790Z,88.71
2018-03-28T05:07:47.350Z,88.87
2018-03-28T05:10:16.125Z,88.67
2018-03-28T05:12:45.099Z,88.84
2018-03-28T05:15:13.717Z,89.08
2018-03-28T05:17:43.014Z,89.81
2018-03-28T05:20:12.362Z,89.46
2018-03-28T05:22:41.020Z,89.06
2018-03-28T05:25:10.230Z,89.04
2018-03-28T05:27:38.555Z,89.19
2018-03-28T05:30:07.877Z,89.29
2018-03-28T05:32:37.326Z,89.75
2018-03-28T05:35:08.278Z,89.87
2018-03-28T05:37:38.994Z,89.59
2018-03-28T05:40:08.250Z,89.66
2018-03-28T05:42:36.663Z,89.36
2018-03-28T05:45:06.591Z,89.29
2018-03-28T05:47:35.162Z,89.47
2018-03-28T05:50:03.534Z,89.76
2018-03-28T05:52:35.512Z,89.47
2018-03-28T05:55:03.897Z,89.25
2018-03-28T05:57:33.030Z,89.15
2018-03-28T06:00:01.484Z,89.12
2018-03-28T06:02:34.943Z,89.27
2018-03-28T06:05:04.245Z,89.51
2018-03-28T06:07:33.617Z,89.74
2018-03-28T06:10:02.005Z,89.74
2018-03-28T06:12:31.746Z,89.66
2018-03-28T06:15:01.022Z,89.89
2018-03-28T06:17:30.303Z,89.67
2018-03-28T06:20:00.304Z,89.76
2018-03-28T06:22:30.458Z,90.06
2018-03-28T06:24:59.121Z,89.88
2018-03-28T06:27:29.610Z,89.93
2018-03-28T06:29:58.817Z,89.51
2018-03-28T06:32:27.522Z,89.41
2018-03-28T06:34:56.007Z,89.07
2018-03-28T06:37:25.144Z,89.50
2018-03-28T06:39:54.659Z,89.58
2018-03-28T06:42:24.251Z,89.49
2018-03-28T06:44:52.625Z,90.02
2018-03-28T06:47:21.888Z,89.95
2018-03-28T06:49:54.530Z,89.94
2018-03-28T06:52:23.222Z,90.88
2018-03-28T06:54:51.685Z,90.83
2018-03-28T06:57:20.058Z,91.23
2018-03-28T06:59:48.872Z,91.58
2018-03-28T07:02:17.250Z,91.45
2018-03-28T07:04:46.024Z,91.38
2018-03-28T07:07:16.172Z,91.12
2018-03-28T07:09:44.972Z,90.69
2018-03-28T07:12:15.153Z,90.62
2018-03-28T07:14:43.536Z,90.45
2018-03-28T07:17:13.906Z,90.48
2018-03-28T07:19:43.038Z,89.95
2018-03-28T07:22:12.310Z,89.90
2018-03-28T07:24:41.675Z,90.09
2018-03-28T07:27:11.458Z,89.95
2018-03-28T07:29:41.102Z,89.46
2018-03-28T07:32:10.463Z,89.50
2018-03-28T07:34:38.795Z,88.87
2018-03-28T07:37:08.003Z,89.11
2018-03-28T07:39:37.277Z,88.77
2018-03-28T07:42:07.337Z,88.89
2018-03-28T07:44:35.658Z,88.38
2018-03-28T07:47:04.080Z,88.15
2018-03-28T07:49:34.246Z,87.91
2018-03-28T07:52:02.822Z,88.40
2018-03-28T07:54:33.088Z,87.21
2018-03-28T07:57:01.481Z,86.61
2018-03-28T07:59:30.607Z,86.10
2018-03-28T08:01:59.642Z,86.48
2018-03-28T08:04:29.664Z,86.52
2018-03-28T08:06:58.086Z,85.93
2018-03-28T08:09:27.249Z,86.38
2018-03-28T08:11:57.092Z,85.69
2018-03-28T08:14:25.707Z,85.57
2018-03-28T08:16:55.764Z,84.89
2018-03-28T08:19:25.332Z,84.88
2018-03-28T08:21:54.542Z,85.14
2018-03-28T08:24:23.623Z,83.92
2018-03-28T08:26:52.777Z,84.78
2018-03-28T08:29:21.330Z,84.17
2018-03-28T08:31:50.859Z,83.81
2018-03-28T08:34:21.580Z,84.79
2018-03-28T08:36:50.499Z,84.65
2018-03-28T08:39:20.847Z,85.29
2018-03-28T08:41:54.485Z,84.26
2018-03-28T08:44:23.758Z,84.43
2018-03-28T08:46:52.114Z,84.29
2018-03-28T08:49:21.411Z,83.92
2018-03-28T08:51:50.624Z,84.31
2018-03-28T08:54:19.001Z,83.97
2018-03-28T08:56:48.181Z,84.34
2018-03-28T08:59:17.359Z,83.07
2018-03-28T09:01:45.738Z,82.66
2018-03-28T09:04:14.092Z,82.36
2018-03-28T09:06:42.511Z,83.08
2018-03-28T09:09:11.567Z,82.23
2018-03-28T09:11:40.277Z,81.95
2018-03-28T09:14:09.654Z,82.12
2018-03-28T09:16:38.290Z,82.16
2018-03-28T09:19:06.626Z,82.84
2018-03-28T09:21:36.594Z,81.57
2018-03-28T09:24:05.778Z,82.29
2018-03-28T09:26:34.845Z,81.61
2018-03-28T09:29:03.172Z,81.57
2018-03-28T09:31:31.576Z,81.62
2018-03-28T09:34:00.803Z,81.59
2018-03-28T09:36:29.439Z,81.15
2018-03-28T09:38:58.529Z,81.08
2018-03-28T09:41:27.139Z,79.83
2018-03-28T09:43:57.317Z,79.60
2018-03-28T09:46:26.178Z,79.61
2018-03-28T09:48:55.820Z,80.93
2018-03-28T09:51:24.825Z,80.85
2018-03-28T09:53:53.391Z,80.51
2018-03-28T09:56:22.211Z,79.60
2018-03-28T09:58:50.590Z,79.43
2018-03-28T10:01:35.390Z,79.05
2018-03-28T10:04:11.282Z,78.54
2018-03-28T10:06:40.575Z,78.10
2018-03-28T10:09:10.127Z,78.26
2018-03-28T10:11:40.038Z,78.54
2018-03-28T10:14:09.160Z,78.68
2018-03-28T10:16:38.660Z,79.50
2018-03-28T10:19:07.998Z,78.72
2018-03-28T10:21:37.938Z,78.74
2018-03-28T10:24:06.425Z,78.34
2018-03-28T10:26:34.826Z,79.20
2018-03-28T10:29:03.214Z,78.15
2018-03-28T10:31:31.580Z,78.40
2018-03-28T10:34:00.856Z,78.39
2018-03-28T10:36:29.572Z,77.92
2018-03-28T10:38:58.779Z,78.27
2018-03-28T10:41:27.941Z,77.53
2018-03-28T10:43:57.519Z,78.70
2018-03-28T10:46:27.464Z,78.18
2018-03-28T10:48:55.817Z,76.96
2018-03-28T10:51:25.136Z,77.71
2018-03-28T10:53:53.864Z,77.47
2018-03-28T10:56:23.088Z,77.94
2018-03-28T10:58:51.429Z,77.59
2018-03-28T11:01:20.789Z,77.91
2018-03-28T11:03:49.469Z,76.94
2018-03-28T11:06:18.054Z,78.04
2018-03-28T11:08:47.134Z,78.31
2018-03-28T11:11:15.590Z,77.53
2018-03-28T11:13:44.837Z,76.97
2018-03-28T11:16:13.182Z,77.09
2018-03-28T11:18:41.797Z,76.99
2018-03-28T11:21:12.133Z,75.53
2018-03-28T11:23:40.687Z,74.95
2018-03-28T11:26:09.979Z,74.93
2018-03-28T11:28:39.039Z,74.65
2018-03-28T11:31:07.681Z,75.70
2018-03-28T11:33:36.099Z,75.14
2018-03-28T11:36:04.665Z,74.77
2018-03-28T11:38:34.227Z,74.56
2018-03-28T11:41:02.633Z,73.73
2018-03-28T11:43:30.964Z,73.43
2018-03-28T11:45:59.449Z,72.36
2018-03-28T11:48:29.112Z,71.86
2018-03-28T11:50:58.344Z,73.15
2018-03-28T11:53:28.286Z,73.12
2018-03-28T11:55:57.732Z,72.56
2018-03-28T11:58:42.165Z,71.38
2018-03-28T12:01:12.903Z,70.27
2018-03-28T12:03:44.130Z,71.21
2018-03-28T12:06:14.288Z,71.06
2018-03-28T12:08:45.425Z,70.49
2018-03-28T12:11:13.810Z,70.01
2018-03-28T12:13:43.074Z,69.84
2018-03-28T12:16:11.920Z,70.36
2018-03-28T12:18:40.589Z,69.79
2018-03-28T12:21:09.436Z,70.16
2018-03-28T12:23:38.892Z,69.73
2018-03-28T12:26:08.021Z,69.75
2018-03-28T12:28:36.395Z,70.91
2018-03-28T12:31:04.732Z,70.23
2018-03-28T12:33:33.185Z,70.61
2018-03-28T12:36:04.002Z,70.29
2018-03-28T12:38:34.823Z,70.97
2018-03-28T12:41:03.192Z,71.19
2018-03-28T12:43:31.555Z,71.36
2018-03-28T12:46:01.099Z,71.83
2018-03-28T12:48:30.102Z,71.53
2018-03-28T12:50:59.252Z,70.53
2018-03-28T12:53:29.133Z,70.01
2018-03-28T12:55:58.716Z,70.99
2018-03-28T12:58:27.535Z,70.14
2018-03-28T13:00:57.218Z,70.04
2018-03-28T13:03:26.507Z,70.12
2018-03-28T13:05:54.991Z,70.66
2018-03-28T13:08:24.753Z,70.87
2018-03-28T13:10:53.573Z,71.16
2018-03-28T13:13:23.022Z,72.22
2018-03-28T13:15:52.412Z,73.15
2018-03-28T13:18:21.079Z,72.80
2018-03-28T13:20:50.229Z,73.09
2018-03-28T13:23:19.008Z,72.32
2018-03-28T13:25:48.448Z,72.46
2018-03-28T13:28:20.852Z,72.77
2018-03-28T13:30:49.991Z,71.67
2018-03-28T13:33:20.479Z,72.27
2018-03-28T13:35:49.396Z,72.62
2018-03-28T13:38:17.758Z,73.13
2018-03-28T13:40:47.137Z,73.51
2018-03-28T13:43:16.080Z,72.52
2018-03-28T13:45:44.513Z,72.69
2018-03-28T13:48:14.772Z,72.41
2018-03-28T13:50:43.186Z,72.66
2018-03-28T13:53:11.719Z,73.30
2018-03-28T13:55:40.831Z,73.55
2018-03-28T13:58:10.166Z,74.35
2018-03-28T14:00:40.505Z,74.43
2018-03-28T14:03:10.618Z,75.14
2018-03-28T14:05:39.677Z,74.68
2018-03-28T14:08:08.352Z,74.36
2018-03-28T14:10:38.230Z,76.02
2018-03-28T14:13:07.299Z,76.24
2018-03-28T14:15:36.186Z,77.39
2018-03-28T14:18:04.873Z,77.45
2018-03-28T14:20:35.575Z,77.24
2018-03-28T14:23:04.740Z,77.02
2018-03-28T14:25:34.435Z,77.73
2018-03-28T14:28:03.864Z,78.72
2018-03-28T14:30:32.186Z,79.30
2018-03-28T14:33:01.472Z,79.72
2018-03-28T14:35:30.491Z,80.40
2018-03-28T14:37:59.832Z,80.75
2018-03-28T14:40:28.210Z,82.02
2018-03-28T14:43:00.473Z,82.39
2018-03-28T14:45:29.227Z,81.69
2018-03-28T14:47:58.412Z,82.55
2018-03-28T14:50:26.795Z,83.73
2018-03-28T14:52:57.711Z,84.45
2018-03-28T14:55:26.332Z,85.02
2018-03-28T14:57:54.760Z,84.99
2018-03-28T15:00:23.559Z,85.03
2018-03-28T15:02:52.857Z,85.18
2018-03-28T15:05:24.812Z,85.70
2018-03-28T15:07:53.347Z,85.64
2018-03-28T15:10:23.996Z,86.62
2018-03-28T15:12:55.030Z,86.17
2018-03-28T15:15:26.034Z,86.44
2018-03-28T15:17:54.501Z,86.22
2018-03-28T15:20:23.730Z,86.09
2018-03-28T15:22:52.184Z,86.31
2018-03-28T15:25:20.659Z,86.38
2018-03-28T15:27:49.066Z,86.05
2018-03-28T15:30:18.922Z,86.20
2018-03-28T15:32:48.521Z,86.16
2018-03-28T15:35:18.201Z,86.10
2018-03-28T15:37:47.076Z,86.43
2018-03-28T15:40:15.495Z,86.59
2018-03-28T15:42:44.725Z,86.85
2018-03-28T15:45:13.354Z,86.86
2018-03-28T15:47:42.724Z,87.29
2018-03-28T15:50:11.182Z,87.39
2018-03-28T15:52:39.834Z,87.45
2018-03-28T15:55:08.293Z,87.35
2018-03-28T15:57:39.714Z,87.48
2018-03-28T16:00:08.051Z,87.30
2018-03-28T16:02:37.231Z,87.39
2018-03-28T16:05:07.145Z,87.71
2018-03-28T16:07:37.377Z,87.47
2018-03-28T16:10:06.000Z,87.55
2018-03-28T16:12:35.344Z,87.77
2018-03-28T16:15:03.773Z,87.76
2018-03-28T16:17:33.065Z,88.06
2018-03-28T16:20:01.600Z,88.24
2018-03-28T16:22:31.988Z,88.07
2018-03-28T16:25:00.335Z,88.28
2018-03-28T16:27:29.471Z,88.30
2018-03-28T16:30:01.200Z,88.06
2018-03-28T16:32:30.914Z,87.77
2018-03-28T16:35:00.437Z,87.87
2018-03-28T16:37:28.846Z,88.38
2018-03-28T16:39:58.213Z,88.02
2018-03-28T16:42:27.037Z,87.95
2018-03-28T16:44:55.459Z,87.95
2018-03-28T16:47:26.411Z,87.92
2018-03-28T16:49:57.115Z,88.56
2018-03-28T16:52:28.472Z,88.18
2018-03-28T16:54:59.582Z,88.73
2018-03-28T16:57:27.956Z,88.69
2018-03-28T16:59:58.044Z,88.54
2018-03-28T17:02:27.875Z,88.88
2018-03-28T17:04:57.168Z,88.69
2018-03-28T17:07:26.330Z,89.08
2018-03-28T17:09:54.796Z,89.42
2018-03-28T17:12:24.639Z,89.72
2018-03-28T17:14:53.052Z,89.71
2018-03-28T17:17:22.229Z,90.06
2018-03-28T17:19:50.627Z,90.04
2018-03-28T17:22:19.175Z,89.70
2018-03-28T17:24:48.984Z,89.80
2018-03-28T17:27:19.108Z,89.75
2018-03-28T17:29:48.483Z,89.66
2018-03-28T17:32:18.788Z,89.64
2018-03-28T17:34:47.755Z,89.48
2018-03-28T17:37:16.335Z,89.33
2018-03-28T17:39:45.636Z,89.44
2018-03-28T17:42:13.974Z,89.60
2018-03-28T17:44:43.452Z,89.73
2018-03-28T17:47:12.072Z,90.03
2018-03-28T17:49:42.148Z,89.72
2018-03-28T17:52:11.618Z,89.55
2018-03-28T17:54:39.971Z,89.58
2018-03-28T17:57:10.130Z,89.76
2018-03-28T17:59:39.036Z,89.56
2018-03-28T18:02:07.642Z,90.09
2018-03-28T18:04:37.406Z,90.17
2018-03-28T18:07:07.490Z,89.81
2018-03-28T18:09:36.004Z,89.82
2018-03-28T18:12:04.330Z,90.04
2018-03-28T18:14:34.327Z,90.13
2018-03-28T18:17:02.709Z,90.13
2018-03-28T18:19:31.863Z,90.07
2018-03-28T18:22:00.999Z,90.02
2018-03-28T18:24:31.751Z,90.14
2018-03-28T18:27:00.866Z,90.13
2018-03-28T18:29:29.285Z,89.98
2018-03-28T18:31:58.303Z,90.51
2018-03-28T18:34:27.472Z,90.02
2018-03-28T18:36:56.551Z,90.44
2018-03-28T18:39:25.354Z,90.25
2018-03-28T18:41:54.614Z,90.39
2018-03-28T18:44:23.270Z,90.41
2018-03-28T18:46:52.796Z,89.94
2018-03-28T18:49:21.363Z,90.18
2018-03-28T18:51:49.770Z,90.82
2018-03-28T18:54:18.134Z,90.74
2018-03-28T18:56:47.113Z,90.69
2018-03-28T18:59:15.519Z,90.77
2018-03-28T19:01:45.138Z,91.12
2018-03-28T19:04:13.794Z,91.16
2018-03-28T19:06:43.614Z,91.23
2018-03-28T19:09:12.417Z,91.34
2018-03-28T19:11:41.218Z,91.49
2018-03-28T19:14:10.415Z,91.46
2018-03-28T19:16:38.796Z,91.62
2018-03-28T19:19:07.629Z,91.35
2018-03-28T19:21:37.143Z,91.20
2018-03-28T19:24:05.528Z,91.32
2018-03-28T19:26:33.962Z,91.21
2018-03-28T19:29:03.275Z,91.76
2018-03-28T19:31:32.652Z,91.50
2018-03-28T19:34:00.998Z,91.32
2018-03-28T19:36:29.366Z,91.09
2018-03-28T19:38:58.044Z,91.17
2018-03-28T19:41:26.776Z,91.48
2018-03-28T19:43:55.100Z,91.38
2018-03-28T19:46:24.118Z,91.02
2018-03-28T19:48:52.672Z,91.33
2018-03-28T19:51:21.115Z,90.96
2018-03-28T19:53:51.530Z,90.91
2018-03-28T19:56:20.798Z,90.99
2018-03-28T19:58:49.294Z,91.07
2018-03-28T20:01:18.497Z,91.23
2018-03-28T20:03:46.903Z,90.85
2018-03-28T20:06:15.714Z,90.65
2018-03-28T20:08:44.524Z,90.63
2018-03-28T20:11:12.913Z,90.62
2018-03-28T20:13:42.240Z,89.97
2018-03-28T20:16:11.060Z,89.98
2018-03-28T20:18:40.645Z,90.01
2018-03-28T20:21:10.043Z,89.97
2018-03-28T20:23:40.284Z,89.64
2018-03-28T20:26:09.594Z,87.84
2018-03-28T20:28:38.053Z,87.97
2018-03-28T20:31:06.398Z,86.56
2018-03-28T20:33:34.776Z,86.75
2018-03-28T20:36:04.318Z,86.82
2018-03-28T20:38:34.027Z,87.10
2018-03-28T20:41:02.815Z,87.12
2018-03-28T20:43:31.169Z,87.00
2018-03-28T20:45:59.535Z,86.43
2018-03-28T20:48:27.871Z,78.82
2018-03-28T20:51:00.431Z,79.24
2018-03-28T20:53:28.803Z,79.96
2018-03-28T20:55:58.184Z,81.19
2018-03-28T20:58:26.502Z,79.99
2018-03-28T21:00:55.554Z,76.98
2018-03-28T21:03:24.776Z,75.45
2018-03-28T21:05:53.553Z,76.82
2018-03-28T21:08:23.421Z,77.28
2018-03-28T21:10:52.693Z,77.78
2018-03-28T21:13:21.838Z,77.12
2018-03-28T21:15:50.958Z,75.17
2018-03-28T21:18:20.580Z,75.54
2018-03-28T21:20:50.900Z,75.60
2018-03-28T21:23:20.488Z,75.78
2018-03-28T21:25:49.489Z,75.01
2018-03-28T21:28:17.807Z,74.82
2018-03-28T21:30:46.156Z,73.47
2018-03-28T21:33:14.479Z,72.83
2018-03-28T21:35:45.749Z,72.97
2018-03-28T21:38:14.921Z,73.14
2018-03-28T21:40:43.642Z,73.97
2018-03-28T21:43:12.485Z,74.35
2018-03-28T21:45:42.516Z,74.31
2018-03-28T21:48:10.899Z,75.41
2018-03-28T21:50:39.308Z,75.19
2018-03-28T21:53:07.661Z,76.62
2018-03-28T21:55:36.039Z,75.88
2018-03-28T21:58:04.421Z,76.60
2018-03-28T22:00:33.737Z,75.89
2018-03-28T22:03:02.098Z,76.31
2018-03-28T22:05:30.470Z,76.63
2018-03-28T22:07:59.048Z,76.82
2018-03-28T22:10:28.048Z,77.98
2018-03-28T22:12:56.454Z,76.84
2018-03-28T22:15:25.195Z,76.25
2018-03-28T22:17:53.600Z,75.71
2018-03-28T22:20:22.067Z,75.12
2018-03-28T22:22:50.427Z,74.15
2018-03-28T22:25:19.497Z,75.07
2018-03-28T22:27:48.121Z,74.87
2018-03-28T22:30:16.511Z,75.45
2018-03-28T22:32:45.504Z,75.39
2018-03-28T22:35:14.645Z,75.62
2018-03-28T22:37:43.228Z,76.73
2018-03-28T22:40:12.617Z,76.96
2018-03-28T22:42:41.056Z,77.90
2018-03-28T22:45:09.467Z,77.88
2018-03-28T22:47:38.667Z,77.63
2018-03-28T22:50:07.052Z,78.18
2018-03-28T22:52:36.764Z,78.66
2018-03-28T22:55:05.978Z,78.09
2018-03-28T22:57:34.852Z,77.05
2018-03-28T23:00:04.399Z,78.36
2018-03-28T23:02:32.495Z,78.39
2018-03-28T23:05:00.924Z,77.70
2018-03-28T23:07:29.379Z,77.77
2018-03-28T23:09:58.499Z,77.97
2018-03-28T23:12:28.441Z,78.00
2018-03-28T23:14:56.798Z,78.45
2018-03-28T23:17:25.172Z,78.46
2018-03-28T23:19:54.011Z,78.94
2018-03-28T23:22:35.656Z,78.24
2018-03-28T23:25:05.792Z,78.33
2018-03-28T23:27:34.465Z,79.29
2018-03-28T23:30:03.623Z,79.47
2018-03-28T23:32:31.976Z,78.57
2018-03-28T23:35:00.353Z,78.83
2018-03-28T23:37:29.519Z,78.41
2018-03-28T23:39:58.251Z,78.87
2018-03-28T23:42:26.928Z,78.54
2018-03-28T23:44:55.316Z,78.35
2018-03-28T23:47:24.644Z,78.54
2018-03-28T23:49:52.998Z,78.84
2018-03-28T23:52:22.072Z,79.96
2018-03-28T23:54:50.719Z,80.77
2018-03-28T23:57:19.083Z,81.06
2018-03-28T23:59:47.686Z,80.71
